createdAt,value
2022-09-13T00:00:59.891Z,66.33
2022-09-13T00:03:27.069Z,67.32
2022-09-13T00:05:54.186Z,67.30
2022-09-13T00:08:21.316Z,66.99
2022-09-13T00:10:48.430Z,66.62
2022-09-13T00:13:16.435Z,67.61
2022-09-13T00:15:50.352Z,67.15
2022-09-13T00:18:18.535Z,67.92
2022-09-13T00:20:45.790Z,67.41
2022-09-13T00:23:13.529Z,67.10
2022-09-13T00:25:40.598Z,67.51
2022-09-13T00:28:07.587Z,67.46
2022-09-13T00:30:34.451Z,67.88
2022-09-13T00:33:04.810Z,68.24
2022-09-13T00:35:31.960Z,67.89
2022-09-13T00:38:00.239Z,68.08
2022-09-13T00:40:27.064Z,68.00
2022-09-13T00:42:53.639Z,68.47
2022-09-13T00:45:20.297Z,67.97
2022-09-13T00:47:59.119Z,68.18
2022-09-13T00:50:35.306Z,68.17
2022-09-13T00:53:13.175Z,68.49
2022-09-13T00:55:42.437Z,68.13
2022-09-13T00:58:20.927Z,68.01
2022-09-13T01:00:48.661Z,67.55
2022-09-13T01:03:16.836Z,67.45
2022-09-13T01:05:53.379Z,68.08
2022-09-13T01:08:23.248Z,68.17
2022-09-13T01:10:56.055Z,67.63
2022-09-13T01:13:34.264Z,67.39
2022-09-13T01:16:01.166Z,68.42
2022-09-13T01:18:27.721Z,68.24
2022-09-13T01:21:21.679Z,68.40
2022-09-13T01:24:06.629Z,68.46
2022-09-13T01:27:10.547Z,67.86
2022-09-13T01:30:01.884Z,68.05
2022-09-13T01:32:47.197Z,68.18
2022-09-13T01:35:30.667Z,68.44
2022-09-13T01:38:15.498Z,68.23
2022-09-13T01:41:04.699Z,68.50
2022-09-13T01:44:12.873Z,68.74
2022-09-13T01:46:50.161Z,68.39
2022-09-13T01:49:28.442Z,69.15
2022-09-13T01:52:01.951Z,69.47
2022-09-13T01:54:43.680Z,68.90
2022-09-13T01:57:31.900Z,68.64
2022-09-13T02:00:08.510Z,69.55
2022-09-13T02:02:44.922Z,69.18
2022-09-13T02:05:21.423Z,69.05
2022-09-13T02:07:58.924Z,69.29
2022-09-13T02:10:33.380Z,69.41
2022-09-13T02:13:01.885Z,69.01
2022-09-13T02:15:36.941Z,69.39
2022-09-13T02:18:25.113Z,69.83
2022-09-13T02:20:53.745Z,69.54
2022-09-13T02:23:28.199Z,69.05
2022-09-13T02:25:56.772Z,69.39
2022-09-13T02:28:31.758Z,69.19
2022-09-13T02:31:00.036Z,69.20
2022-09-13T02:33:31.112Z,69.30
2022-09-13T02:36:13.255Z,69.00
2022-09-13T02:38:45.402Z,69.33
2022-09-13T02:41:18.004Z,68.90
2022-09-13T02:43:51.066Z,69.45
2022-09-13T02:47:02.819Z,69.72
2022-09-13T02:49:43.024Z,69.19
2022-09-13T02:52:17.035Z,69.44
2022-09-13T02:54:56.367Z,68.93
2022-09-13T02:57:52.238Z,69.49
2022-09-13T03:00:19.488Z,69.18
2022-09-13T03:02:48.669Z,69.47
2022-09-13T03:05:15.309Z,70.01
2022-09-13T03:07:41.869Z,69.43
2022-09-13T03:10:13.795Z,69.63
2022-09-13T03:12:58.881Z,69.65
2022-09-13T03:15:59.980Z,69.57
2022-09-13T03:19:03.563Z,69.53
2022-09-13T03:22:07.758Z,69.90
2022-09-13T03:25:03.605Z,69.99
2022-09-13T03:27:54.533Z,70.10
2022-09-13T03:30:21.217Z,70.23
2022-09-13T03:32:59.783Z,70.73
2022-09-13T03:35:35.874Z,70.44
2022-09-13T03:38:10.355Z,70.16
2022-09-13T03:40:51.718Z,70.04
2022-09-13T03:43:35.763Z,70.30
2022-09-13T03:46:10.877Z,70.49
2022-09-13T03:48:40.679Z,70.64
2022-09-13T03:51:09.601Z,70.36
2022-09-13T03:53:42.452Z,70.60
2022-09-13T03:56:16.851Z,70.15
2022-09-13T03:58:43.912Z,69.77
2022-09-13T04:01:10.574Z,69.88
2022-09-13T04:03:40.267Z,69.90
2022-09-13T04:06:07.303Z,70.41
2022-09-13T04:08:33.902Z,70.17
2022-09-13T04:11:01.523Z,70.13
2022-09-13T04:13:28.457Z,69.42
2022-09-13T04:15:55.044Z,70.03
2022-09-13T04:18:21.658Z,70.29
2022-09-13T04:20:59.316Z,69.58
2022-09-13T04:23:28.022Z,70.07
2022-09-13T04:25:54.990Z,69.53
2022-09-13T04:28:22.706Z,69.08
2022-09-13T04:30:50.130Z,68.83
2022-09-13T04:33:19.702Z,67.80
2022-09-13T04:35:46.218Z,66.61
2022-09-13T04:38:12.758Z,65.95
2022-09-13T04:40:39.509Z,65.10
2022-09-13T04:43:06.276Z,66.95
2022-09-13T04:45:32.840Z,67.62
2022-09-13T04:48:00.456Z,67.93
2022-09-13T04:50:27.021Z,67.99
2022-09-13T04:52:55.404Z,68.22
2022-09-13T04:55:22.398Z,68.44
2022-09-13T04:57:53.270Z,68.32
2022-09-13T05:00:19.929Z,66.82
2022-09-13T05:02:46.564Z,65.08
2022-09-13T05:05:13.247Z,64.47
2022-09-13T05:07:39.764Z,63.75
2022-09-13T05:10:06.799Z,63.20
2022-09-13T05:12:33.346Z,62.61
2022-09-13T05:14:59.858Z,61.57
2022-09-13T05:17:26.524Z,61.10
2022-09-13T05:19:53.149Z,60.49
2022-09-13T05:22:19.751Z,60.56
2022-09-13T05:24:46.582Z,60.11
2022-09-13T05:27:13.150Z,59.92
2022-09-13T05:29:39.663Z,59.50
2022-09-13T05:32:06.214Z,59.68
2022-09-13T05:34:32.765Z,59.48
2022-09-13T05:36:59.319Z,59.46
2022-09-13T05:39:36.037Z,59.18
2022-09-13T05:42:10.430Z,59.19
2022-09-13T05:44:36.924Z,59.21
2022-09-13T05:47:03.457Z,59.50
2022-09-13T05:49:30.009Z,58.61
2022-09-13T05:51:56.677Z,59.03
2022-09-13T05:54:23.174Z,59.39
2022-09-13T05:56:52.553Z,59.00
2022-09-13T05:59:19.073Z,59.07
2022-09-13T06:01:45.676Z,58.62
2022-09-13T06:04:13.047Z,58.33
2022-09-13T06:06:39.547Z,59.19
2022-09-13T06:09:08.438Z,58.49
2022-09-13T06:11:34.959Z,58.56
2022-09-13T06:14:01.724Z,58.39
2022-09-13T06:16:28.309Z,58.28
2022-09-13T06:18:55.091Z,57.91
2022-09-13T06:21:28.274Z,58.10
2022-09-13T06:23:56.153Z,57.72
2022-09-13T06:26:25.507Z,57.51
2022-09-13T06:28:55.505Z,57.22
2022-09-13T06:31:24.932Z,57.11
2022-09-13T06:34:00.338Z,57.02
2022-09-13T06:36:27.489Z,57.08
2022-09-13T06:38:54.371Z,56.62
2022-09-13T06:41:23.419Z,56.79
2022-09-13T06:43:58.684Z,57.30
2022-09-13T06:46:28.403Z,57.52
2022-09-13T06:48:55.712Z,57.61
2022-09-13T06:51:24.596Z,57.05
2022-09-13T06:53:52.444Z,57.35
2022-09-13T06:56:24.581Z,57.71
2022-09-13T06:58:54.738Z,57.68
2022-09-13T07:01:29.715Z,57.96
2022-09-13T07:04:08.084Z,58.77
2022-09-13T07:06:43.713Z,59.72
2022-09-13T07:09:17.256Z,60.06
2022-09-13T07:11:44.830Z,60.53
2022-09-13T07:14:17.855Z,59.93
2022-09-13T07:16:46.174Z,59.03
2022-09-13T07:19:22.901Z,58.92
2022-09-13T07:21:50.461Z,58.21
2022-09-13T07:24:17.741Z,58.26
2022-09-13T07:26:45.197Z,58.57
2022-09-13T07:29:15.133Z,58.82
2022-09-13T07:31:45.802Z,59.09
2022-09-13T07:34:20.536Z,58.40
2022-09-13T07:36:48.301Z,57.75
2022-09-13T07:39:20.301Z,57.51
2022-09-13T07:41:48.809Z,58.10
2022-09-13T07:44:15.410Z,57.72
2022-09-13T07:46:43.547Z,57.04
2022-09-13T07:49:15.067Z,56.58
2022-09-13T07:51:43.727Z,56.00
2022-09-13T07:54:16.507Z,55.34
2022-09-13T07:56:43.678Z,54.55
2022-09-13T07:59:15.151Z,54.40
2022-09-13T08:01:44.385Z,53.76
2022-09-13T08:04:13.823Z,53.94
2022-09-13T08:06:41.613Z,53.29
2022-09-13T08:09:09.735Z,53.29
2022-09-13T08:11:39.042Z,53.08
2022-09-13T08:14:08.120Z,52.84
2022-09-13T08:16:35.077Z,51.98
2022-09-13T08:19:03.726Z,51.75
2022-09-13T08:21:36.637Z,52.21
2022-09-13T08:24:04.835Z,52.63
2022-09-13T08:26:33.093Z,52.67
2022-09-13T08:29:02.089Z,53.17
2022-09-13T08:31:29.234Z,52.96
2022-09-13T08:33:56.804Z,52.26
2022-09-13T08:36:24.936Z,52.08
2022-09-13T08:38:54.288Z,52.35
2022-09-13T08:41:34.079Z,52.92
2022-09-13T08:44:29.707Z,51.84
2022-09-13T08:46:59.003Z,51.85
2022-09-13T08:49:34.550Z,52.10
2022-09-13T08:52:16.526Z,51.74
2022-09-13T08:54:43.487Z,52.13
2022-09-13T08:57:19.493Z,52.00
2022-09-13T09:00:20.666Z,51.51
2022-09-13T09:03:12.172Z,51.98
2022-09-13T09:05:56.773Z,51.57
2022-09-13T09:08:31.307Z,51.67
2022-09-13T09:11:02.816Z,50.98
2022-09-13T09:13:32.412Z,50.79
2022-09-13T09:16:06.312Z,50.14
2022-09-13T09:18:38.651Z,49.58
2022-09-13T09:21:15.332Z,50.32
2022-09-13T09:23:55.628Z,50.22
2022-09-13T09:26:23.860Z,49.78
2022-09-13T09:29:01.087Z,49.47
2022-09-13T09:31:48.697Z,48.51
2022-09-13T09:34:51.261Z,47.90
2022-09-13T09:37:25.966Z,47.75
2022-09-13T09:39:54.656Z,46.84
2022-09-13T09:42:25.596Z,46.65
2022-09-13T09:45:01.433Z,46.20
2022-09-13T09:47:33.345Z,46.77
2022-09-13T09:50:10.434Z,46.10
2022-09-13T09:53:05.567Z,45.99
2022-09-13T09:55:41.170Z,44.97
2022-09-13T09:58:08.854Z,45.27
2022-09-13T10:00:39.517Z,45.29
2022-09-13T10:03:17.136Z,45.09
2022-09-13T10:05:44.301Z,45.00
2022-09-13T10:08:31.546Z,45.22
2022-09-13T10:11:00.518Z,45.50
2022-09-13T10:13:31.796Z,45.07
2022-09-13T10:16:07.829Z,44.68
2022-09-13T10:18:45.430Z,44.76
2022-09-13T10:21:18.371Z,45.46
2022-09-13T10:23:47.378Z,45.86
2022-09-13T10:26:28.993Z,46.04
2022-09-13T10:29:13.241Z,46.01
2022-09-13T10:31:43.866Z,45.60
2022-09-13T10:34:17.402Z,45.71
2022-09-13T10:36:53.900Z,45.74
2022-09-13T10:39:23.136Z,45.33
2022-09-13T10:42:05.755Z,45.38
2022-09-13T10:44:45.176Z,44.96
2022-09-13T10:47:19.308Z,44.43
2022-09-13T10:49:54.770Z,44.46
2022-09-13T10:52:33.506Z,44.74
2022-09-13T10:55:22.848Z,44.38
2022-09-13T10:58:02.500Z,44.07
2022-09-13T11:01:06.283Z,43.94
2022-09-13T11:03:35.862Z,43.79
2022-09-13T11:06:15.498Z,43.13
2022-09-13T11:08:45.800Z,41.96
2022-09-13T11:11:34.160Z,41.43
2022-09-13T11:14:38.351Z,42.29
2022-09-13T11:17:20.154Z,42.32
2022-09-13T11:20:08.439Z,41.92
2022-09-13T11:22:58.071Z,42.08
2022-09-13T11:25:36.680Z,41.48
2022-09-13T11:28:37.361Z,41.49
2022-09-13T11:31:25.513Z,41.16
2022-09-13T11:33:58.160Z,41.12
2022-09-13T11:36:53.785Z,41.31
2022-09-13T11:39:38.787Z,40.59
2022-09-13T11:42:11.442Z,40.75
2022-09-13T11:45:07.075Z,40.52
2022-09-13T11:47:59.238Z,40.18
2022-09-13T11:50:53.449Z,40.01
2022-09-13T11:53:50.299Z,39.58
2022-09-13T11:56:20.955Z,39.65
2022-09-13T11:58:54.862Z,39.39
2022-09-13T12:01:27.615Z,38.89
2022-09-13T12:04:03.854Z,37.91
2022-09-13T12:06:44.415Z,37.98
2022-09-13T12:09:25.234Z,38.44
2022-09-13T12:12:12.070Z,38.13
2022-09-13T12:15:04.951Z,37.65
2022-09-13T12:17:36.364Z,37.70
2022-09-13T12:20:07.348Z,37.44
2022-09-13T12:22:36.064Z,36.84
2022-09-13T12:25:11.415Z,36.92
2022-09-13T12:27:49.174Z,35.47
2022-09-13T12:30:22.359Z,34.62
2022-09-13T12:32:50.157Z,33.25
2022-09-13T12:35:21.973Z,33.33
2022-09-13T12:38:07.165Z,33.51
2022-09-13T12:40:36.611Z,32.80
2022-09-13T12:43:45.274Z,31.78
2022-09-13T12:46:16.094Z,30.88
2022-09-13T12:49:10.628Z,31.63
2022-09-13T12:51:50.081Z,31.36
2022-09-13T12:54:19.588Z,31.53
2022-09-13T12:56:56.753Z,30.74
2022-09-13T12:59:36.854Z,30.13
2022-09-13T13:02:23.626Z,29.60
2022-09-13T13:04:58.505Z,29.66
2022-09-13T13:07:25.523Z,29.75
2022-09-13T13:09:54.823Z,29.47
2022-09-13T13:12:33.496Z,29.56
2022-09-13T13:15:04.639Z,29.57
2022-09-13T13:17:42.700Z,29.48
2022-09-13T13:20:41.094Z,29.61
2022-09-13T13:23:28.606Z,29.58
2022-09-13T13:26:11.740Z,29.75
2022-09-13T13:28:44.547Z,30.36
2022-09-13T13:31:35.457Z,31.08
2022-09-13T13:34:10.114Z,31.44
2022-09-13T13:36:39.961Z,31.50
2022-09-13T13:39:33.625Z,30.97
2022-09-13T13:42:20.560Z,31.56
2022-09-13T13:44:47.052Z,31.38
2022-09-13T13:47:13.524Z,31.99
2022-09-13T13:49:40.292Z,31.90
2022-09-13T13:52:09.130Z,32.43
2022-09-13T13:54:41.837Z,33.25
2022-09-13T13:57:30.927Z,33.60
2022-09-13T14:00:16.265Z,33.56
2022-09-13T14:02:54.839Z,33.63
2022-09-13T14:05:30.430Z,33.70
2022-09-13T14:08:14.953Z,34.04
2022-09-13T14:10:58.684Z,34.42
2022-09-13T14:13:37.412Z,34.25
2022-09-13T14:16:19.460Z,34.82
2022-09-13T14:19:13.766Z,35.13
2022-09-13T14:21:40.585Z,35.26
2022-09-13T14:24:24.742Z,35.41
2022-09-13T14:26:54.732Z,35.71
2022-09-13T14:29:24.099Z,35.70
2022-09-13T14:31:53.591Z,35.98
2022-09-13T14:34:38.836Z,36.43
2022-09-13T14:37:17.160Z,36.75
2022-09-13T14:40:02.342Z,36.54
2022-09-13T14:42:39.975Z,36.36
2022-09-13T14:45:07.063Z,36.35
2022-09-13T14:47:43.594Z,36.79
2022-09-13T14:50:16.387Z,36.32
2022-09-13T14:53:02.119Z,36.64
2022-09-13T14:55:37.376Z,36.66
2022-09-13T14:58:16.059Z,36.53
2022-09-13T15:00:53.946Z,36.14
2022-09-13T15:03:20.800Z,35.76
2022-09-13T15:06:00.055Z,35.05
2022-09-13T15:08:33.206Z,34.21
2022-09-13T15:11:01.645Z,32.71
2022-09-13T15:13:28.994Z,31.18
2022-09-13T15:15:56.243Z,30.26
2022-09-13T15:18:37.053Z,29.49
2022-09-13T15:21:16.798Z,28.97
2022-09-13T15:23:50.495Z,29.19
2022-09-13T15:26:28.010Z,29.26
2022-09-13T15:28:56.781Z,29.72
2022-09-13T15:31:31.904Z,30.50
2022-09-13T15:34:17.072Z,30.65
2022-09-13T15:36:48.027Z,31.53
2022-09-13T15:39:21.702Z,31.93
2022-09-13T15:42:07.531Z,32.70
2022-09-13T15:47:22.961Z,32.83
2022-09-13T15:49:51.554Z,33.46
2022-09-13T15:52:24.618Z,33.86
2022-09-13T15:54:52.471Z,33.75
2022-09-13T15:57:27.641Z,34.21
2022-09-13T15:59:56.187Z,34.39
2022-09-13T16:02:29.359Z,34.21
2022-09-13T16:04:56.708Z,34.38
2022-09-13T16:07:25.126Z,34.75
2022-09-13T16:09:52.735Z,34.88
2022-09-13T16:12:22.118Z,34.97
2022-09-13T16:14:48.703Z,35.27
2022-09-13T16:17:21.183Z,34.75
2022-09-13T16:19:50.918Z,35.06
2022-09-13T16:22:17.519Z,35.13
2022-09-13T16:24:44.157Z,34.98
2022-09-13T16:27:13.474Z,35.45
2022-09-13T16:29:40.522Z,35.28
2022-09-13T16:32:07.446Z,35.68
2022-09-13T16:34:35.043Z,36.21
2022-09-13T16:37:01.900Z,36.16
2022-09-13T16:39:29.110Z,36.01
2022-09-13T16:41:55.713Z,36.28
2022-09-13T16:44:22.307Z,36.32
2022-09-13T16:46:48.957Z,36.44
2022-09-13T16:49:15.621Z,36.72
2022-09-13T16:51:42.203Z,37.10
2022-09-13T16:54:08.906Z,36.99
2022-09-13T16:56:35.504Z,37.40
2022-09-13T16:59:02.348Z,37.32
2022-09-13T17:01:29.869Z,37.58
2022-09-13T17:03:57.523Z,38.03
2022-09-13T17:06:26.595Z,38.40
2022-09-13T17:09:00.673Z,38.93
2022-09-13T17:11:29.107Z,38.93
2022-09-13T17:16:58.459Z,40.17
2022-09-13T17:19:31.452Z,40.72
2022-09-13T17:21:58.285Z,41.18
2022-09-13T17:24:27.083Z,41.42
2022-09-13T17:26:55.321Z,41.99
2022-09-13T17:29:22.824Z,42.23
2022-09-13T17:31:49.581Z,42.55
2022-09-13T17:34:16.322Z,42.89
2022-09-13T17:36:43.197Z,43.42
2022-09-13T17:39:10.076Z,43.73
2022-09-13T17:41:36.839Z,44.59
2022-09-13T17:44:03.813Z,45.49
2022-09-13T17:46:30.752Z,46.00
2022-09-13T17:48:59.219Z,46.46
2022-09-13T17:51:28.267Z,46.97
2022-09-13T17:53:58.825Z,46.27
2022-09-13T17:56:29.774Z,46.79
2022-09-13T17:58:58.283Z,47.30
2022-09-13T18:01:25.039Z,47.65
2022-09-13T18:03:54.518Z,47.95
2022-09-13T18:06:21.168Z,48.65
2022-09-13T18:08:47.856Z,48.56
2022-09-13T18:11:22.196Z,49.09
2022-09-13T18:13:49.914Z,49.06
2022-09-13T18:16:27.482Z,49.76
2022-09-13T18:18:54.329Z,50.54
2022-09-13T18:21:23.303Z,50.46
2022-09-13T18:23:52.235Z,51.29
2022-09-13T18:26:21.486Z,51.61
2022-09-13T18:28:54.213Z,51.46
2022-09-13T18:31:20.793Z,52.15
2022-09-13T18:33:48.099Z,53.56
2022-09-13T18:36:17.073Z,53.72
2022-09-13T18:38:47.736Z,54.15
2022-09-13T18:41:17.724Z,54.44
2022-09-13T18:43:46.253Z,54.61
2022-09-13T18:46:15.273Z,54.73
2022-09-13T18:48:44.092Z,54.48
2022-09-13T18:51:12.457Z,54.63
2022-09-13T18:53:39.833Z,54.68
2022-09-13T18:56:10.103Z,54.78
2022-09-13T18:58:38.960Z,54.94
2022-09-13T19:01:07.072Z,55.24
2022-09-13T19:03:34.490Z,55.47
2022-09-13T19:06:17.176Z,55.49
2022-09-13T19:08:44.504Z,55.37
2022-09-13T19:11:29.068Z,55.70
2022-09-13T19:13:58.438Z,55.85
2022-09-13T19:16:26.444Z,56.65
2022-09-13T19:18:53.328Z,56.58
2022-09-13T19:21:25.722Z,56.68
2022-09-13T19:23:59.487Z,56.72
2022-09-13T19:26:33.642Z,57.51
2022-09-13T19:29:06.334Z,57.24
2022-09-13T19:31:36.790Z,57.38
2022-09-13T19:34:04.308Z,57.50
2022-09-13T19:36:35.913Z,57.77
2022-09-13T19:39:05.029Z,57.83
2022-09-13T19:41:31.955Z,57.97
2022-09-13T19:44:01.175Z,58.18
2022-09-13T19:46:34.278Z,58.51
2022-09-13T19:49:02.285Z,58.78
2022-09-13T19:51:34.257Z,58.66
2022-09-13T19:54:01.135Z,58.95
2022-09-13T19:56:33.420Z,58.77
2022-09-13T19:59:01.253Z,59.31
2022-09-13T20:01:31.609Z,59.17
2022-09-13T20:04:04.832Z,59.39
2022-09-13T20:06:43.118Z,59.45
2022-09-13T20:09:11.292Z,59.89
2022-09-13T20:11:42.502Z,60.10
2022-09-13T20:14:10.035Z,60.20
2022-09-13T20:16:38.209Z,60.38
2022-09-13T20:19:23.670Z,61.12
2022-09-13T20:21:52.970Z,62.24
2022-09-13T20:24:20.268Z,63.61
2022-09-13T20:26:47.872Z,64.22
2022-09-13T20:29:15.045Z,65.43
2022-09-13T20:31:43.781Z,66.04
2022-09-13T20:34:17.240Z,66.66
2022-09-13T20:36:47.247Z,67.43
2022-09-13T20:39:15.218Z,67.50
2022-09-13T20:41:43.307Z,68.11
2022-09-13T20:44:10.283Z,68.11
2022-09-13T20:46:37.777Z,68.46
2022-09-13T20:49:05.439Z,68.94
2022-09-13T20:51:34.714Z,69.57
2022-09-13T20:54:05.025Z,69.06
2022-09-13T20:56:34.216Z,69.05
2022-09-13T20:59:01.259Z,68.98
2022-09-13T21:01:30.121Z,69.52
2022-09-13T21:03:57.353Z,69.64
2022-09-13T21:06:28.301Z,69.93
2022-09-13T21:08:56.424Z,70.31
2022-09-13T21:11:25.708Z,70.26
2022-09-13T21:13:54.753Z,70.36
2022-09-13T21:16:24.664Z,70.54
2022-09-13T21:18:52.353Z,70.62
2022-09-13T21:21:22.388Z,70.40
2022-09-13T21:23:49.254Z,70.69
2022-09-13T21:26:18.752Z,71.10
2022-09-13T21:28:45.351Z,71.15
2022-09-13T21:31:18.386Z,71.31
2022-09-13T21:33:47.481Z,70.88
2022-09-13T21:36:14.163Z,70.93
2022-09-13T21:38:41.089Z,71.27
2022-09-13T21:41:12.460Z,71.10
2022-09-13T21:43:39.728Z,70.96
2022-09-13T21:46:16.706Z,71.12
2022-09-13T21:48:52.948Z,70.65
2022-09-13T21:51:35.000Z,70.89
2022-09-13T21:54:02.717Z,71.11
2022-09-13T21:56:31.276Z,71.25
2022-09-13T21:59:03.056Z,70.97
2022-09-13T22:01:32.534Z,71.34
2022-09-13T22:04:00.521Z,71.39
2022-09-13T22:06:33.135Z,71.76
2022-09-13T22:09:03.384Z,71.23
2022-09-13T22:11:32.663Z,71.54
2022-09-13T22:14:00.190Z,71.59
2022-09-13T22:16:29.639Z,71.32
2022-09-13T22:18:59.430Z,71.64
2022-09-13T22:21:33.734Z,71.13
2022-09-13T22:24:01.067Z,70.71
2022-09-13T22:26:29.963Z,70.25
2022-09-13T22:28:58.404Z,70.01
2022-09-13T22:31:31.083Z,69.84
2022-09-13T22:34:00.542Z,69.68
2022-09-13T22:36:27.199Z,69.79
2022-09-13T22:38:55.089Z,69.70
2022-09-13T22:41:31.027Z,68.74
2022-09-13T22:43:59.047Z,69.00
2022-09-13T22:46:32.135Z,69.19
2022-09-13T22:48:58.898Z,69.47
2022-09-13T22:51:25.708Z,69.72
2022-09-13T22:53:53.753Z,69.76
2022-09-13T22:56:23.863Z,69.51
2022-09-13T22:58:59.217Z,69.63
2022-09-13T23:01:27.179Z,69.72
2022-09-13T23:03:54.647Z,69.35
2022-09-13T23:06:24.105Z,69.37
2022-09-13T23:08:52.451Z,70.00
2022-09-13T23:11:19.095Z,69.51
2022-09-13T23:13:47.675Z,69.16
2022-09-13T23:16:20.698Z,69.33
2022-09-13T23:18:48.028Z,69.32
2022-09-13T23:21:18.058Z,69.66
2022-09-13T23:23:44.917Z,69.99
2022-09-13T23:26:14.695Z,69.74
2022-09-13T23:28:41.242Z,70.41
2022-09-13T23:31:12.099Z,70.32
2022-09-13T23:33:40.466Z,70.18
2022-09-13T23:36:08.338Z,70.49
2022-09-13T23:38:35.171Z,70.59
2022-09-13T23:41:02.065Z,70.87
2022-09-13T23:43:28.644Z,70.86
2022-09-13T23:45:55.588Z,70.71
2022-09-13T23:48:22.475Z,71.17
2022-09-13T23:50:49.077Z,70.27
2022-09-13T23:53:15.592Z,70.48
2022-09-13T23:55:42.111Z,70.35
2022-09-13T23:58:08.607Z,70.01
